CA-0303 weather

CLOSED Mobil 1128 Airport
Rainbow Lake, Alberta, Canada

Public forecast

Using degrees Celsius for public forecast. Weather courtesy of forecast.io.

Closest aviation weather report (METAR) to Mobil 1128 Airport

Closest report is High Level Airport, 55.5 nm (102.8 km) E. Retrieved 2019/10/15 18:07 UTC (3 minutes ago):

CYOJ 151807Z 12009G18KT 12SM SCT010 SCT023 OVC260 M00/M02 A2990 RMK SF4SC1CI4 SC TR SLP150

Closest aviation forecast (TAF) to Mobil 1128 Airport

Closest forecast is High Level Airport, 55.5 nm (102.8 km) E. Retrieved 2019/10/15 19:42 UTC (0 seconds ago):

TAF TAF CYOJ 151838Z 1519/1607 12012KT P6SM SCT010 OVC260 TEMPO 1519/1521 BKN008 OVC025 FM152100 13012G22KT P6SM SCT020 BKN100 TEMPO 1521/1524 BKN020 BKN100 FM160000 13012G22KT P6SM -RA BKN025 OVC060 TEMPO 1600/1603 4SM -RASN BKN020 OVC060 FM160300 11010KT 6SM -RASN OVC010 TEMPO 1603/1607 2SM -SN OVC006 RMK NXT FCST BY 160100Z